createdAt,value
2019-05-02T00:00:41.224Z,0.00
2019-05-02T00:01:41.245Z,0.00
2019-05-02T00:02:41.212Z,0.00
2019-05-02T00:03:42.894Z,0.00
2019-05-02T00:04:41.209Z,0.00
2019-05-02T00:05:41.206Z,0.00
2019-05-02T00:06:42.921Z,0.00
2019-05-02T00:07:41.204Z,0.00
2019-05-02T00:08:41.197Z,0.00
2019-05-02T00:09:47.768Z,0.00
2019-05-02T00:10:41.189Z,0.00
2019-05-02T00:11:41.221Z,0.00
2019-05-02T00:12:41.190Z,0.00
2019-05-02T00:13:41.182Z,0.00
2019-05-02T00:14:41.186Z,0.00
2019-05-02T00:15:41.178Z,0.00
2019-05-02T00:16:45.174Z,0.00
2019-05-02T00:17:41.207Z,0.00
2019-05-02T00:18:41.179Z,0.00
2019-05-02T00:19:45.140Z,0.00
2019-05-02T00:20:41.166Z,0.00
2019-05-02T00:21:43.127Z,0.00
2019-05-02T00:22:41.187Z,0.00
2019-05-02T00:23:41.159Z,0.00
2019-05-02T00:24:41.183Z,0.00
2019-05-02T00:25:41.159Z,0.00
2019-05-02T00:26:41.154Z,0.00
2019-05-02T00:27:41.175Z,0.00
2019-05-02T00:28:43.002Z,0.00
2019-05-02T00:29:41.135Z,0.00
2019-05-02T00:30:41.141Z,0.00
2019-05-02T00:31:41.952Z,0.00
2019-05-02T00:32:41.165Z,0.00
2019-05-02T00:33:41.133Z,0.00
2019-05-02T00:34:41.128Z,0.00
2019-05-02T00:35:45.905Z,0.00
2019-05-02T00:36:41.124Z,0.00
2019-05-02T00:37:41.156Z,0.00
2019-05-02T00:38:41.112Z,0.00
2019-05-02T00:39:45.121Z,0.00
2019-05-02T00:40:41.109Z,0.00
2019-05-02T00:41:41.106Z,0.00
2019-05-02T00:42:41.133Z,0.00
2019-05-02T00:43:41.097Z,0.00
2019-05-02T00:44:42.018Z,0.00
2019-05-02T00:45:41.097Z,0.00
2019-05-02T00:46:41.091Z,0.00
2019-05-02T00:47:42.339Z,0.00
2019-05-02T00:48:41.090Z,0.00
2019-05-02T00:49:41.086Z,0.00
2019-05-02T00:50:45.400Z,0.00
2019-05-02T00:51:41.078Z,0.00
2019-05-02T00:52:41.102Z,0.00
2019-05-02T00:53:44.406Z,0.00
2019-05-02T00:54:41.066Z,0.00
2019-05-02T00:55:41.068Z,0.00
2019-05-02T00:56:44.212Z,0.00
2019-05-02T00:57:41.059Z,0.00
2019-05-02T00:58:41.090Z,0.00
2019-05-02T00:59:42.448Z,0.00
2019-05-02T01:00:41.046Z,0.00
2019-05-02T01:01:41.051Z,0.00
2019-05-02T01:02:41.817Z,0.00
2019-05-02T01:03:41.071Z,0.00
2019-05-02T01:04:41.041Z,0.00
2019-05-02T01:05:41.036Z,0.00
2019-05-02T01:06:44.753Z,0.00
2019-05-02T01:07:41.038Z,0.00
2019-05-02T01:08:41.062Z,0.00
2019-05-02T01:09:42.098Z,0.00
2019-05-02T01:10:41.030Z,0.00
2019-05-02T01:11:41.019Z,0.00
2019-05-02T01:12:44.399Z,0.00
2019-05-02T01:13:41.039Z,0.00
2019-05-02T01:14:41.013Z,0.00
2019-05-02T01:15:44.219Z,0.00
2019-05-02T01:16:41.004Z,0.00
2019-05-02T01:17:41.006Z,0.00
2019-05-02T01:18:42.450Z,0.00
2019-05-02T01:19:41.136Z,0.00
2019-05-02T01:20:41.000Z,0.00
2019-05-02T01:21:40.995Z,0.00
2019-05-02T01:22:40.990Z,0.00
2019-05-02T01:23:41.019Z,0.00
2019-05-02T01:24:41.650Z,0.00
2019-05-02T01:25:40.983Z,0.00
2019-05-02T01:26:40.976Z,0.00
2019-05-02T01:27:42.456Z,0.00
2019-05-02T01:28:40.999Z,0.00
2019-05-02T01:29:40.970Z,0.00
2019-05-02T01:30:42.369Z,0.00
2019-05-02T01:31:40.962Z,0.00
2019-05-02T01:32:40.957Z,0.00
2019-05-02T01:33:41.664Z,0.00
2019-05-02T01:34:40.982Z,0.00
2019-05-02T01:35:40.950Z,0.00
2019-05-02T01:36:41.225Z,0.00
2019-05-02T01:37:40.947Z,0.00
2019-05-02T01:38:40.945Z,0.00
2019-05-02T01:39:42.705Z,0.00
2019-05-02T01:40:40.938Z,0.00
2019-05-02T01:41:40.935Z,0.00
2019-05-02T01:42:44.528Z,0.00
2019-05-02T01:43:40.928Z,0.00
2019-05-02T01:44:40.958Z,0.00
2019-05-02T01:45:41.878Z,0.00
2019-05-02T01:46:40.924Z,0.00
2019-05-02T01:47:40.922Z,0.00
2019-05-02T01:48:45.808Z,0.00
2019-05-02T01:49:40.940Z,0.00
2019-05-02T01:50:40.909Z,0.00
2019-05-02T01:51:41.925Z,0.00
2019-05-02T01:52:40.996Z,0.00
2019-05-02T01:53:40.900Z,0.00
2019-05-02T01:54:45.567Z,0.00
2019-05-02T01:55:40.894Z,0.00
2019-05-02T01:56:40.888Z,0.00
2019-05-02T01:57:44.693Z,0.00
2019-05-02T01:58:40.884Z,0.00
2019-05-02T01:59:40.910Z,0.00
2019-05-02T02:00:44.697Z,0.00
2019-05-02T02:01:40.877Z,0.00
2019-05-02T02:02:40.875Z,0.00
2019-05-02T02:03:45.757Z,0.00
2019-05-02T02:04:40.897Z,0.00
2019-05-02T02:05:40.861Z,0.00
2019-05-02T02:06:43.365Z,0.00
2019-05-02T02:07:40.858Z,0.00
2019-05-02T02:08:40.853Z,0.00
2019-05-02T02:09:44.072Z,0.00
2019-05-02T02:10:43.726Z,0.00
2019-05-02T02:11:40.849Z,0.00
2019-05-02T02:12:42.979Z,0.00
2019-05-02T02:13:40.834Z,0.00
2019-05-02T02:14:40.866Z,0.00
2019-05-02T02:15:40.830Z,0.00
2019-05-02T02:16:40.827Z,0.00
2019-05-02T02:17:40.822Z,0.00
2019-05-02T02:18:40.822Z,0.00
2019-05-02T02:19:40.847Z,0.00
2019-05-02T02:20:45.215Z,0.00
2019-05-02T02:21:42.865Z,0.00
2019-05-02T02:22:41.099Z,0.00
2019-05-02T02:23:44.888Z,0.00
2019-05-02T02:24:40.827Z,0.00
2019-05-02T02:25:40.798Z,0.00
2019-05-02T02:26:43.666Z,0.00
2019-05-02T02:27:40.812Z,0.00
2019-05-02T02:28:40.819Z,0.00
2019-05-02T02:29:43.965Z,0.00
2019-05-02T02:30:40.784Z,0.00
2019-05-02T02:31:46.540Z,0.00
2019-05-02T02:32:40.778Z,0.00
2019-05-02T02:33:47.499Z,0.00
2019-05-02T02:34:40.806Z,0.00
2019-05-02T02:35:49.707Z,0.00
2019-05-02T02:36:40.767Z,0.00
2019-05-02T02:37:51.959Z,0.00
2019-05-02T02:38:40.756Z,0.00
2019-05-02T02:39:40.781Z,0.00
2019-05-02T02:40:40.753Z,0.00
2019-05-02T02:41:45.301Z,0.00
2019-05-02T02:42:40.743Z,0.00
2019-05-02T02:43:40.741Z,0.00
2019-05-02T02:44:41.966Z,0.00
2019-05-02T02:45:40.734Z,0.00
2019-05-02T02:46:40.730Z,0.00
2019-05-02T02:47:40.730Z,0.00
2019-05-02T02:48:42.703Z,0.00
2019-05-02T02:49:40.747Z,0.00
2019-05-02T02:50:43.136Z,0.00
2019-05-02T02:51:40.721Z,0.00
2019-05-02T02:52:44.600Z,0.00
2019-05-02T02:53:40.954Z,0.00
2019-05-02T02:54:43.215Z,0.00
2019-05-02T02:55:40.698Z,0.00
2019-05-02T02:56:40.961Z,0.00
2019-05-02T02:57:40.695Z,0.00
2019-05-02T02:58:45.691Z,0.00
2019-05-02T02:59:40.716Z,0.00
2019-05-02T03:00:41.454Z,0.00
2019-05-02T03:01:40.682Z,0.00
2019-05-02T03:02:47.770Z,0.00
2019-05-02T03:03:40.675Z,0.00
2019-05-02T03:04:44.218Z,0.00
2019-05-02T03:05:40.668Z,0.00
2019-05-02T03:06:44.807Z,0.00
2019-05-02T03:07:40.659Z,0.00
2019-05-02T03:08:46.110Z,0.00
2019-05-02T03:09:40.800Z,0.00
2019-05-02T03:10:45.114Z,0.00
2019-05-02T03:11:40.648Z,0.00
2019-05-02T03:12:41.598Z,0.00
2019-05-02T03:13:51.250Z,0.00
2019-05-02T03:14:46.626Z,0.00
2019-05-02T03:15:40.635Z,0.00
2019-05-02T03:16:46.909Z,0.00
2019-05-02T03:17:40.628Z,0.00
2019-05-02T03:18:43.346Z,0.00
2019-05-02T03:19:40.878Z,0.00
2019-05-02T03:20:42.040Z,0.00
2019-05-02T03:21:40.619Z,0.00
2019-05-02T03:22:41.783Z,0.00
2019-05-02T03:23:40.607Z,0.00
2019-05-02T03:24:44.149Z,0.00
2019-05-02T03:25:50.286Z,0.00
2019-05-02T03:26:40.594Z,0.00
2019-05-02T03:27:40.603Z,0.00
2019-05-02T03:28:40.642Z,0.00
2019-05-02T03:29:44.353Z,0.00
2019-05-02T03:30:40.607Z,0.00
2019-05-02T03:31:40.578Z,0.00
2019-05-02T03:32:40.599Z,0.00
2019-05-02T03:33:53.782Z,0.00
2019-05-02T03:34:52.995Z,0.00
2019-05-02T03:35:44.648Z,5.63
2019-05-02T03:36:40.595Z,5.63
2019-05-02T03:37:44.674Z,5.63
2019-05-02T03:38:41.339Z,5.63
2019-05-02T03:39:40.655Z,5.63
2019-05-02T03:40:41.374Z,11.25
2019-05-02T03:41:40.540Z,11.25
2019-05-02T03:42:44.747Z,11.25
2019-05-02T03:43:40.544Z,11.25
2019-05-02T03:44:40.564Z,16.88
2019-05-02T03:45:43.016Z,16.88
2019-05-02T03:46:40.523Z,16.88
2019-05-02T03:47:43.856Z,22.50
2019-05-02T03:48:41.345Z,22.50
2019-05-02T03:49:47.889Z,22.50
2019-05-02T03:50:40.516Z,28.13
2019-05-02T03:51:40.511Z,28.13
2019-05-02T03:52:43.552Z,33.75
2019-05-02T03:53:40.500Z,33.75
2019-05-02T03:54:48.922Z,39.38
2019-05-02T03:55:40.497Z,45.00
2019-05-02T03:56:44.608Z,50.63
2019-05-02T03:57:42.060Z,50.63
2019-05-02T03:58:40.484Z,50.63
2019-05-02T03:59:41.872Z,56.25
2019-05-02T04:00:40.481Z,61.88
2019-05-02T04:01:41.423Z,61.88
2019-05-02T04:02:40.464Z,61.88
2019-05-02T04:03:43.419Z,61.88
2019-05-02T04:04:40.495Z,67.50
2019-05-02T04:05:42.235Z,67.50
2019-05-02T04:06:40.456Z,67.50
2019-05-02T04:07:42.194Z,73.13
2019-05-02T04:08:40.453Z,73.13
2019-05-02T04:09:42.563Z,78.75
2019-05-02T04:10:40.444Z,90.00
2019-05-02T04:11:40.993Z,90.00
2019-05-02T04:12:40.442Z,101.25
2019-05-02T04:13:40.432Z,112.50
2019-05-02T04:14:40.473Z,123.75
2019-05-02T04:15:40.422Z,129.38
2019-05-02T04:16:40.418Z,140.63
2019-05-02T04:17:40.417Z,146.25
2019-05-02T04:18:40.424Z,146.25
2019-05-02T04:19:40.452Z,146.25
2019-05-02T04:20:43.626Z,151.88
2019-05-02T04:21:40.409Z,157.50
2019-05-02T04:22:42.935Z,163.13
2019-05-02T04:23:40.398Z,174.38
2019-05-02T04:24:40.428Z,185.63
2019-05-02T04:25:40.394Z,191.25
2019-05-02T04:26:52.805Z,196.88
2019-05-02T04:27:40.390Z,196.88
2019-05-02T04:28:45.665Z,196.88
2019-05-02T04:29:40.410Z,196.88
2019-05-02T04:30:45.265Z,196.88
2019-05-02T04:31:40.379Z,202.50
2019-05-02T04:32:42.939Z,213.75
2019-05-02T04:33:40.373Z,219.38
2019-05-02T04:34:40.402Z,230.63
2019-05-02T04:35:40.367Z,236.25
2019-05-02T04:36:40.362Z,247.50
2019-05-02T04:37:41.346Z,264.38
2019-05-02T04:38:46.888Z,275.63
2019-05-02T04:39:40.388Z,275.63
2019-05-02T04:40:41.785Z,275.63
2019-05-02T04:41:42.340Z,281.25
2019-05-02T04:42:40.351Z,286.88
2019-05-02T04:43:50.356Z,292.50
2019-05-02T04:44:52.978Z,303.75
2019-05-02T04:45:53.136Z,320.63
2019-05-02T04:46:40.341Z,320.63
2019-05-02T04:47:42.589Z,326.25
2019-05-02T04:48:48.138Z,331.88
2019-05-02T04:49:40.337Z,337.50
2019-05-02T04:50:40.339Z,343.13
2019-05-02T04:51:40.326Z,343.13
2019-05-02T04:52:51.219Z,348.75
2019-05-02T04:53:45.055Z,360.00
2019-05-02T04:54:40.316Z,371.25
2019-05-02T04:55:40.326Z,376.88
2019-05-02T04:56:49.643Z,393.75
2019-05-02T04:57:47.284Z,405.00
2019-05-02T04:58:40.804Z,410.63
2019-05-02T04:59:40.315Z,410.63
2019-05-02T05:00:45.099Z,416.25
2019-05-02T05:01:49.177Z,427.50
2019-05-02T05:02:40.332Z,438.75
2019-05-02T05:03:40.330Z,450.00
2019-05-02T05:04:46.120Z,455.63
2019-05-02T05:05:40.460Z,461.25
2019-05-02T05:06:40.917Z,466.88
2019-05-02T05:07:45.842Z,472.50
2019-05-02T05:08:41.668Z,489.38
2019-05-02T05:09:40.562Z,495.00
2019-05-02T05:10:41.486Z,500.63
2019-05-02T05:11:40.289Z,511.88
2019-05-02T05:12:41.793Z,511.88
2019-05-02T05:13:40.322Z,511.88
2019-05-02T05:14:43.324Z,523.13
2019-05-02T05:15:48.561Z,534.38
2019-05-02T05:16:40.282Z,551.25
2019-05-02T05:17:40.291Z,556.88
2019-05-02T05:18:43.928Z,568.13
2019-05-02T05:19:40.278Z,579.38
2019-05-02T05:20:40.607Z,579.38
2019-05-02T05:21:40.279Z,590.63
2019-05-02T05:22:44.384Z,596.25
2019-05-02T05:23:40.314Z,596.25
2019-05-02T05:24:42.311Z,601.88
2019-05-02T05:25:40.274Z,613.13
2019-05-02T05:26:42.922Z,630.00
2019-05-02T05:27:40.273Z,635.63
2019-05-02T05:28:44.221Z,652.50
2019-05-02T05:29:40.271Z,658.13
2019-05-02T05:30:45.152Z,680.63
2019-05-02T05:31:40.277Z,686.25
2019-05-02T05:32:40.292Z,686.25
2019-05-02T05:33:40.266Z,697.50
2019-05-02T05:34:40.268Z,703.13
2019-05-02T05:35:43.269Z,714.38
2019-05-02T05:36:40.267Z,714.38
2019-05-02T05:37:43.316Z,720.00
2019-05-02T05:38:40.706Z,736.88
2019-05-02T05:39:43.151Z,759.38
2019-05-02T05:40:40.260Z,765.00
2019-05-02T05:41:42.580Z,765.00
2019-05-02T05:42:40.285Z,770.63
2019-05-02T05:43:40.261Z,770.63
2019-05-02T05:44:40.268Z,787.50
2019-05-02T05:45:50.831Z,810.00
2019-05-02T05:46:42.499Z,826.88
2019-05-02T05:47:40.295Z,821.25
2019-05-02T05:48:40.842Z,826.88
2019-05-02T05:49:40.257Z,832.50
2019-05-02T05:50:41.516Z,838.13
2019-05-02T05:51:40.257Z,849.38
2019-05-02T05:52:42.349Z,860.63
2019-05-02T05:53:40.258Z,866.25
2019-05-02T05:54:42.034Z,866.25
2019-05-02T05:55:40.259Z,883.13
2019-05-02T05:56:43.230Z,900.00
2019-05-02T05:57:40.289Z,939.38
2019-05-02T05:58:50.426Z,922.50
2019-05-02T05:59:40.261Z,916.88
2019-05-02T06:00:40.257Z,939.38
2019-05-02T06:01:40.253Z,956.25
2019-05-02T06:02:52.695Z,967.50
2019-05-02T06:03:44.597Z,967.50
2019-05-02T06:04:40.258Z,978.75
2019-05-02T06:05:41.193Z,990.00
2019-05-02T06:06:40.258Z,1001.25
2019-05-02T06:07:44.003Z,1023.75
2019-05-02T06:08:40.288Z,1029.38
2019-05-02T06:09:40.255Z,1035.00
2019-05-02T06:10:43.909Z,1035.00
2019-05-02T06:11:40.253Z,1063.13
2019-05-02T06:12:40.264Z,1063.13
2019-05-02T06:13:42.986Z,1080.00
2019-05-02T06:14:40.259Z,1102.50
2019-05-02T06:15:40.479Z,1119.38
2019-05-02T06:16:40.262Z,1136.25
2019-05-02T06:17:40.258Z,1136.25
2019-05-02T06:18:41.869Z,1175.63
2019-05-02T06:19:40.283Z,1181.25
2019-05-02T06:20:40.264Z,1186.88
2019-05-02T06:21:45.238Z,1192.50
2019-05-02T06:22:40.254Z,1220.63
2019-05-02T06:23:41.567Z,1254.38
2019-05-02T06:24:40.434Z,1265.63
2019-05-02T06:25:42.528Z,1293.75
2019-05-02T06:26:40.263Z,1333.13
2019-05-02T06:27:40.279Z,1333.13
2019-05-02T06:28:41.526Z,1338.75
2019-05-02T06:29:40.313Z,1305.00
2019-05-02T06:30:40.267Z,1288.13
2019-05-02T06:31:43.172Z,1282.50
2019-05-02T06:32:40.271Z,1333.13
2019-05-02T06:33:40.275Z,1389.38
2019-05-02T06:34:46.589Z,1406.25
2019-05-02T06:35:40.272Z,1411.88
2019-05-02T06:36:40.273Z,1434.38
2019-05-02T06:37:40.766Z,1428.75
2019-05-02T06:38:40.276Z,1299.38
2019-05-02T06:39:40.307Z,1198.13
2019-05-02T06:40:44.722Z,1316.25
2019-05-02T06:41:40.273Z,1068.75
2019-05-02T06:42:40.279Z,1029.38
2019-05-02T06:43:41.073Z,1074.38
2019-05-02T06:44:40.309Z,1321.88
2019-05-02T06:45:40.280Z,1411.88
2019-05-02T06:46:40.264Z,1490.63
2019-05-02T06:47:41.646Z,1569.38
2019-05-02T06:48:40.853Z,1541.25
2019-05-02T06:49:40.315Z,1704.38
2019-05-02T06:50:40.590Z,1726.88
2019-05-02T06:51:40.289Z,1710.00
2019-05-02T06:52:40.289Z,1726.88
2019-05-02T06:53:41.429Z,1805.63
2019-05-02T06:54:40.324Z,1884.38
2019-05-02T06:55:40.295Z,1777.50
2019-05-02T06:56:43.007Z,1636.88
2019-05-02T06:57:40.292Z,1845.00
2019-05-02T06:58:41.934Z,1704.38
2019-05-02T06:59:40.320Z,1755.00
2019-05-02T07:00:56.518Z,1923.75
2019-05-02T07:01:40.302Z,2092.50
2019-05-02T07:02:40.302Z,2176.88
2019-05-02T07:03:41.299Z,2323.13
2019-05-02T07:04:40.338Z,2396.25
2019-05-02T07:05:40.306Z,2576.25
2019-05-02T07:06:50.092Z,2643.75
2019-05-02T07:07:40.312Z,1738.13
2019-05-02T07:08:40.396Z,2638.13
2019-05-02T07:09:41.591Z,2761.88
2019-05-02T07:10:44.965Z,2373.75
2019-05-02T07:11:40.974Z,2643.75
2019-05-02T07:12:40.322Z,2823.75
2019-05-02T07:13:42.124Z,2851.88
2019-05-02T07:14:40.362Z,2469.38
2019-05-02T07:15:40.535Z,2435.63
2019-05-02T07:16:40.331Z,2908.13
2019-05-02T07:17:40.337Z,2587.50
2019-05-02T07:18:42.131Z,2671.88
2019-05-02T07:19:40.335Z,2728.13
2019-05-02T07:20:42.349Z,2835.00
2019-05-02T07:21:40.346Z,3155.63
2019-05-02T07:22:40.821Z,3082.50
2019-05-02T07:23:40.349Z,3110.63
2019-05-02T07:24:40.353Z,2885.63
2019-05-02T07:25:44.013Z,3166.88
2019-05-02T07:26:40.356Z,3240.00
2019-05-02T07:27:40.359Z,2610.00
2019-05-02T07:28:45.473Z,3200.63
2019-05-02T07:29:40.364Z,3105.00
2019-05-02T07:30:40.399Z,2885.63
2019-05-02T07:31:42.944Z,2947.50
2019-05-02T07:32:40.376Z,2986.88
2019-05-02T07:33:40.378Z,3217.50
2019-05-02T07:34:44.291Z,2756.25
2019-05-02T07:35:40.385Z,2182.50
2019-05-02T07:36:40.392Z,1980.00
2019-05-02T07:37:44.054Z,1113.75
2019-05-02T07:38:40.395Z,1057.50
2019-05-02T07:39:40.974Z,2396.25
2019-05-02T07:40:40.432Z,2908.13
2019-05-02T07:41:40.409Z,2705.63
2019-05-02T07:42:41.822Z,2643.75
2019-05-02T07:43:40.416Z,3105.00
2019-05-02T07:44:40.423Z,3076.88
2019-05-02T07:45:45.198Z,3206.25
2019-05-02T07:46:51.224Z,2902.50
2019-05-02T07:47:42.380Z,3144.38
2019-05-02T07:48:43.414Z,3465.00
2019-05-02T07:49:40.438Z,3436.88
2019-05-02T07:50:41.144Z,3144.38
2019-05-02T07:51:40.442Z,3178.13
2019-05-02T07:52:41.208Z,3020.63
2019-05-02T07:53:44.454Z,3043.13
2019-05-02T07:54:40.460Z,2986.88
2019-05-02T07:55:42.384Z,3155.63
2019-05-02T07:56:40.463Z,3352.50
2019-05-02T07:57:40.467Z,3223.13
2019-05-02T07:58:47.027Z,3279.38
2019-05-02T07:59:40.478Z,3313.13
2019-05-02T08:00:40.507Z,3217.50
2019-05-02T08:01:40.483Z,3290.63
2019-05-02T08:02:40.494Z,3369.38
2019-05-02T08:03:40.499Z,3217.50
2019-05-02T08:04:43.586Z,3015.00
2019-05-02T08:05:40.539Z,2891.25
2019-05-02T08:06:44.664Z,3133.13
2019-05-02T08:07:40.528Z,3448.13
2019-05-02T08:08:40.524Z,3301.88
2019-05-02T08:09:43.995Z,3442.50
2019-05-02T08:10:40.563Z,3566.25
2019-05-02T08:11:40.541Z,3408.75
2019-05-02T08:12:40.553Z,3245.63
2019-05-02T08:13:40.556Z,3296.25
2019-05-02T08:14:40.561Z,3600.00
2019-05-02T08:15:40.597Z,3425.63
2019-05-02T08:16:40.579Z,2531.25
2019-05-02T08:17:40.585Z,3459.38
2019-05-02T08:18:40.585Z,3391.88
2019-05-02T08:19:41.695Z,3178.13
2019-05-02T08:20:40.628Z,3825.00
2019-05-02T08:21:40.606Z,3678.75
2019-05-02T08:22:44.029Z,3487.50
2019-05-02T08:23:40.623Z,3397.50
2019-05-02T08:24:40.628Z,3431.25
2019-05-02T08:25:41.509Z,3532.50
2019-05-02T08:26:40.640Z,3510.00
2019-05-02T08:27:40.655Z,3459.38
2019-05-02T08:28:40.657Z,3510.00
2019-05-02T08:29:40.661Z,3386.25
2019-05-02T08:30:41.871Z,3583.13
2019-05-02T08:31:40.681Z,3678.75
2019-05-02T08:32:40.685Z,3470.63
2019-05-02T08:33:40.693Z,3543.75
2019-05-02T08:34:40.704Z,3628.13
2019-05-02T08:35:40.739Z,3639.38
2019-05-02T08:36:40.717Z,3543.75
2019-05-02T08:37:41.464Z,3712.50
2019-05-02T08:38:40.737Z,3836.25
2019-05-02T08:39:40.745Z,3628.13
2019-05-02T08:40:42.412Z,3690.00
2019-05-02T08:41:40.757Z,3656.25
2019-05-02T08:42:40.767Z,3796.88
2019-05-02T08:43:44.896Z,3948.75
2019-05-02T08:44:50.706Z,3785.63
2019-05-02T08:45:40.823Z,3847.50
2019-05-02T08:46:40.798Z,3684.38
2019-05-02T08:47:40.806Z,3594.38
2019-05-02T08:48:41.849Z,3538.13
2019-05-02T08:49:42.515Z,3780.00
2019-05-02T08:50:40.866Z,3802.50
2019-05-02T08:51:41.592Z,3740.63
2019-05-02T08:52:42.202Z,3802.50
2019-05-02T08:53:40.865Z,3948.75
2019-05-02T08:54:40.878Z,4083.75
2019-05-02T08:55:41.287Z,3403.13
2019-05-02T08:56:40.921Z,3526.88
2019-05-02T08:57:40.901Z,3757.50
2019-05-02T08:58:44.879Z,3948.75
2019-05-02T08:59:41.014Z,3853.13
2019-05-02T09:00:40.955Z,3763.13
2019-05-02T09:01:44.770Z,3768.75
2019-05-02T09:02:42.017Z,3976.88
2019-05-02T09:03:54.721Z,3971.25
2019-05-02T09:04:40.977Z,4033.13
2019-05-02T09:05:45.561Z,3858.75
2019-05-02T09:06:40.988Z,3937.50
2019-05-02T09:07:42.946Z,3898.13
2019-05-02T09:08:41.008Z,3819.38
2019-05-02T09:09:41.033Z,4061.25
2019-05-02T09:10:42.214Z,3875.63
2019-05-02T09:11:41.506Z,4196.25
2019-05-02T09:12:44.311Z,4365.00
2019-05-02T09:13:42.210Z,3982.50
2019-05-02T09:14:42.606Z,3937.50
2019-05-02T09:15:49.766Z,3999.38
2019-05-02T09:16:42.745Z,4095.00
2019-05-02T09:17:44.637Z,4140.00
2019-05-02T09:18:50.098Z,4303.13
2019-05-02T09:19:42.934Z,3988.13
2019-05-02T09:20:42.340Z,3926.25
2019-05-02T09:21:42.917Z,4089.38
2019-05-02T09:22:41.864Z,4185.00
2019-05-02T09:23:42.090Z,3650.63
2019-05-02T09:24:43.068Z,3960.00
2019-05-02T09:25:42.968Z,3920.63
2019-05-02T09:26:42.577Z,4173.75
2019-05-02T09:27:42.054Z,4168.13
2019-05-02T09:28:42.271Z,4027.50
2019-05-02T09:29:42.474Z,4078.13
2019-05-02T09:30:41.951Z,4016.25
2019-05-02T09:31:44.354Z,3931.88
2019-05-02T09:32:41.882Z,4055.63
2019-05-02T09:33:45.259Z,4100.63
2019-05-02T09:34:42.357Z,3943.13
2019-05-02T09:35:42.152Z,3836.25
2019-05-02T09:36:41.825Z,3768.75
2019-05-02T09:37:41.859Z,3706.88
2019-05-02T09:38:42.497Z,3903.75
2019-05-02T09:39:41.603Z,4078.13
2019-05-02T09:40:42.623Z,4606.88
2019-05-02T09:41:41.927Z,4640.63
2019-05-02T09:42:42.955Z,4314.38
2019-05-02T09:43:42.615Z,3931.88
2019-05-02T09:44:42.588Z,4021.88
2019-05-02T09:45:43.824Z,4145.63
2019-05-02T09:46:42.828Z,4156.88
2019-05-02T09:47:55.449Z,4291.88
2019-05-02T09:48:42.642Z,4201.88
2019-05-02T09:49:48.924Z,3926.25
2019-05-02T09:50:42.199Z,3836.25
2019-05-02T09:51:42.044Z,4151.25
2019-05-02T09:52:44.187Z,4168.13
2019-05-02T09:53:43.198Z,4089.38
2019-05-02T09:54:44.557Z,4179.38
2019-05-02T09:55:49.560Z,3993.75
2019-05-02T09:56:43.061Z,3926.25
2019-05-02T09:57:42.784Z,4151.25
2019-05-02T09:58:42.040Z,4471.88
2019-05-02T09:59:43.155Z,4404.38
2019-05-02T10:00:41.933Z,4196.25
2019-05-02T10:01:42.138Z,4308.75
2019-05-02T10:02:41.916Z,4415.63
2019-05-02T10:03:42.335Z,4336.88
2019-05-02T10:04:44.037Z,4483.13
2019-05-02T10:05:43.099Z,4286.25
2019-05-02T10:06:42.939Z,4207.50
2019-05-02T10:07:42.009Z,4303.13
2019-05-02T10:08:43.522Z,4533.75
2019-05-02T10:09:42.421Z,4567.50
2019-05-02T10:10:44.896Z,4308.75
2019-05-02T10:11:41.883Z,4381.88
2019-05-02T10:12:42.702Z,4713.75
2019-05-02T10:13:42.441Z,4702.50
2019-05-02T10:14:42.186Z,4438.13
2019-05-02T10:15:42.211Z,4488.75
2019-05-02T10:16:42.616Z,4623.75
2019-05-02T10:17:42.872Z,4432.50
2019-05-02T10:18:43.128Z,4511.25
2019-05-02T10:19:48.804Z,4595.63
2019-05-02T10:20:42.060Z,4550.63
2019-05-02T10:21:42.248Z,4246.88
2019-05-02T10:22:43.735Z,4320.00
2019-05-02T10:23:42.734Z,4511.25
2019-05-02T10:24:42.545Z,4201.88
2019-05-02T10:25:46.620Z,4089.38
2019-05-02T10:26:42.011Z,4145.63
2019-05-02T10:27:45.963Z,4016.25
2019-05-02T10:28:49.280Z,4005.00
2019-05-02T10:29:41.997Z,3763.13
2019-05-02T10:30:42.637Z,4505.63
2019-05-02T10:31:42.312Z,4730.63
2019-05-02T10:32:42.751Z,4831.88
2019-05-02T10:33:42.914Z,4702.50
2019-05-02T10:34:42.279Z,4314.38
2019-05-02T10:35:43.334Z,4218.75
2019-05-02T10:36:44.890Z,4471.88
2019-05-02T10:37:43.071Z,4370.63
2019-05-02T10:38:42.715Z,4303.13
2019-05-02T10:39:42.369Z,4286.25
2019-05-02T10:40:42.538Z,4623.75
2019-05-02T10:41:43.777Z,4674.38
2019-05-02T10:42:42.171Z,4235.63
2019-05-02T10:43:42.435Z,4185.00
2019-05-02T10:44:42.661Z,4410.00
2019-05-02T10:45:42.639Z,4466.25
2019-05-02T10:46:42.230Z,4438.13
2019-05-02T10:47:42.401Z,4539.38
2019-05-02T10:48:42.336Z,4291.88
2019-05-02T10:49:42.695Z,3999.38
2019-05-02T10:50:42.320Z,4162.50
2019-05-02T10:51:49.042Z,4353.75
2019-05-02T10:52:42.556Z,4460.63
2019-05-02T10:53:42.502Z,4455.00
2019-05-02T10:54:42.347Z,4381.88
2019-05-02T10:55:42.643Z,4258.13
2019-05-02T10:56:42.441Z,4207.50
2019-05-02T10:57:42.393Z,4196.25
2019-05-02T10:58:42.678Z,4095.00
2019-05-02T10:59:42.454Z,4033.13
2019-05-02T11:00:45.280Z,1541.25
2019-05-02T11:01:42.483Z,4297.50
2019-05-02T11:02:42.498Z,4663.13
2019-05-02T11:03:43.774Z,4573.13
2019-05-02T11:04:42.507Z,4471.88
2019-05-02T11:05:42.506Z,4303.13
2019-05-02T11:06:46.084Z,4432.50
2019-05-02T11:07:42.551Z,4471.88
2019-05-02T11:08:46.013Z,4758.75
2019-05-02T11:09:42.576Z,4955.63
2019-05-02T11:10:42.595Z,4966.88
2019-05-02T11:11:42.657Z,4820.63
2019-05-02T11:12:46.964Z,4629.38
2019-05-02T11:13:42.673Z,4635.00
2019-05-02T11:14:42.662Z,4837.50
2019-05-02T11:15:42.675Z,5085.00
2019-05-02T11:16:42.720Z,5118.75
2019-05-02T11:17:42.704Z,5338.13
2019-05-02T11:18:45.223Z,5326.88
2019-05-02T11:19:42.740Z,5113.13
2019-05-02T11:20:42.760Z,4927.50
2019-05-02T11:21:55.807Z,5051.25
2019-05-02T11:22:42.880Z,5090.63
2019-05-02T11:23:42.835Z,4871.25
2019-05-02T11:24:42.822Z,1901.25
2019-05-02T11:25:42.838Z,4770.00
2019-05-02T11:26:42.987Z,5124.38
2019-05-02T11:27:42.869Z,5107.50
2019-05-02T11:28:42.902Z,4905.00
2019-05-02T11:29:42.903Z,4629.38
2019-05-02T11:30:42.919Z,4561.88
2019-05-02T11:31:42.961Z,3391.88
2019-05-02T11:32:42.952Z,4297.50
2019-05-02T11:33:42.962Z,2216.25
2019-05-02T11:34:42.983Z,4168.13
2019-05-02T11:35:49.082Z,4511.25
2019-05-02T11:36:43.039Z,4466.25
2019-05-02T11:37:43.030Z,4561.88
2019-05-02T11:38:45.222Z,2964.38
2019-05-02T11:39:50.021Z,3976.88
2019-05-02T11:40:43.077Z,1822.50
2019-05-02T11:41:43.115Z,4111.88
2019-05-02T11:42:43.109Z,4545.00
2019-05-02T11:43:44.967Z,1822.50
2019-05-02T11:44:43.137Z,2925.00
2019-05-02T11:45:43.152Z,2970.00
2019-05-02T11:46:46.878Z,2103.75
2019-05-02T11:47:43.179Z,2086.88
2019-05-02T11:48:55.603Z,4162.50
2019-05-02T11:49:46.834Z,3988.13
2019-05-02T11:50:43.228Z,4618.13
2019-05-02T11:51:47.132Z,2013.75
2019-05-02T11:52:43.252Z,1766.25
2019-05-02T11:53:43.269Z,1535.63
2019-05-02T11:54:44.678Z,1293.75
2019-05-02T11:55:43.847Z,1141.88
2019-05-02T11:56:48.851Z,1085.63
2019-05-02T11:57:43.325Z,1102.50
2019-05-02T11:58:48.019Z,1338.75
2019-05-02T11:59:43.351Z,4044.38
2019-05-02T12:00:48.419Z,2053.13
2019-05-02T12:01:56.217Z,4505.63
2019-05-02T12:02:43.385Z,4291.88
2019-05-02T12:03:43.446Z,4410.00
2019-05-02T12:04:47.240Z,4398.75
2019-05-02T12:05:43.451Z,4291.88
2019-05-02T12:06:43.436Z,4263.75
2019-05-02T12:07:43.448Z,4533.75
2019-05-02T12:08:45.000Z,4528.13
2019-05-02T12:09:50.783Z,3363.75
2019-05-02T12:10:43.511Z,1957.50
2019-05-02T12:11:47.331Z,4387.50
2019-05-02T12:12:43.519Z,4072.50
2019-05-02T12:13:47.367Z,4325.63
2019-05-02T12:14:43.580Z,4263.75
2019-05-02T12:15:44.294Z,1614.38
2019-05-02T12:16:43.568Z,4297.50
2019-05-02T12:17:43.586Z,4432.50
2019-05-02T12:18:43.600Z,4156.88
2019-05-02T12:19:43.650Z,3256.88
2019-05-02T12:20:43.662Z,2008.13
2019-05-02T12:21:43.761Z,3836.25
2019-05-02T12:22:43.664Z,3813.75
2019-05-02T12:23:43.689Z,3639.38
2019-05-02T12:24:45.311Z,3628.13
2019-05-02T12:25:43.738Z,3808.13
2019-05-02T12:26:46.405Z,3960.00
2019-05-02T12:27:43.733Z,3875.63
2019-05-02T12:28:43.747Z,3960.00
2019-05-02T12:29:43.790Z,2818.13
2019-05-02T12:30:43.801Z,1125.00
2019-05-02T12:31:47.268Z,1029.38